createdAt,value
2022-12-08T00:01:35.092Z,-9.14
2022-12-08T00:04:04.500Z,-8.44
2022-12-08T00:06:53.896Z,-8.46
2022-12-08T00:09:32.165Z,-8.55
2022-12-08T00:12:12.714Z,-8.50
2022-12-08T00:14:44.831Z,-8.58
2022-12-08T00:17:16.288Z,-8.61
2022-12-08T00:19:45.135Z,-9.63
2022-12-08T00:22:13.210Z,-8.53
2022-12-08T00:24:42.306Z,-8.65
2022-12-08T00:27:11.805Z,-8.64
2022-12-08T00:29:39.164Z,-9.48
2022-12-08T00:32:07.433Z,-8.53
2022-12-08T00:34:35.339Z,-8.44
2022-12-08T00:37:02.677Z,-8.46
2022-12-08T00:39:30.230Z,-8.45
2022-12-08T00:42:12.587Z,-8.75
2022-12-08T00:44:42.065Z,-8.69
2022-12-08T00:47:10.118Z,-8.55
2022-12-08T00:49:37.807Z,-8.54
2022-12-08T00:52:05.894Z,-8.64
2022-12-08T00:54:33.393Z,-8.56
2022-12-08T00:57:00.865Z,-8.55
2022-12-08T00:59:28.548Z,-8.55
2022-12-08T01:01:56.124Z,-8.63
2022-12-08T01:04:25.034Z,-8.58
2022-12-08T01:06:53.484Z,-8.65
2022-12-08T01:09:20.874Z,-8.58
2022-12-08T01:11:48.373Z,-8.52
2022-12-08T01:14:16.379Z,-8.51
2022-12-08T01:16:44.068Z,-8.49
2022-12-08T01:19:13.253Z,-8.58
2022-12-08T01:21:42.221Z,-8.49
2022-12-08T01:24:18.520Z,-9.19
2022-12-08T01:26:46.656Z,-8.39
2022-12-08T01:29:14.513Z,-8.42
2022-12-08T01:31:42.357Z,-8.47
2022-12-08T01:34:12.491Z,-8.46
2022-12-08T01:36:40.360Z,-9.01
2022-12-08T01:39:10.812Z,-8.96
2022-12-08T01:41:39.367Z,-8.45
2022-12-08T01:44:10.956Z,-8.58
2022-12-08T01:46:41.907Z,-9.23
2022-12-08T01:49:15.824Z,-8.65
2022-12-08T01:51:50.415Z,-9.23
2022-12-08T01:54:18.783Z,-8.57
2022-12-08T01:56:51.131Z,-8.56
2022-12-08T01:59:19.826Z,-8.62
2022-12-08T02:01:52.285Z,-8.51
2022-12-08T02:04:19.834Z,-8.58
2022-12-08T02:06:49.577Z,-8.53
2022-12-08T02:09:17.388Z,-8.54
2022-12-08T02:11:44.673Z,-8.52
2022-12-08T02:14:14.613Z,-8.75
2022-12-08T02:17:05.977Z,-8.53
2022-12-08T02:20:04.628Z,-8.54
2022-12-08T02:22:35.937Z,-8.50
2022-12-08T02:25:33.732Z,-8.48
2022-12-08T02:28:34.949Z,-8.63
2022-12-08T02:31:39.724Z,-8.71
2022-12-08T02:34:18.865Z,-8.64
2022-12-08T02:37:17.504Z,-8.66
2022-12-08T02:40:00.129Z,-8.68
2022-12-08T02:42:33.209Z,-8.68
2022-12-08T02:45:07.361Z,-8.66
2022-12-08T02:47:36.463Z,-8.61
2022-12-08T02:50:04.338Z,-8.65
2022-12-08T02:52:31.819Z,-8.57
2022-12-08T02:55:06.720Z,-8.55
2022-12-08T02:57:55.549Z,-8.56
2022-12-08T03:00:25.900Z,-8.83
2022-12-08T03:03:00.391Z,-8.54
2022-12-08T03:05:49.599Z,-8.52
2022-12-08T03:08:25.040Z,-8.56
2022-12-08T03:11:20.807Z,-8.53
2022-12-08T03:13:54.414Z,-8.54
2022-12-08T03:16:26.796Z,-9.31
2022-12-08T03:19:09.910Z,-8.72
2022-12-08T03:21:38.647Z,-9.27
2022-12-08T03:24:08.328Z,-8.65
2022-12-08T03:26:47.941Z,-8.77
2022-12-08T03:29:15.621Z,-8.70
2022-12-08T03:31:49.892Z,-9.40
2022-12-08T03:34:18.522Z,-8.64
2022-12-08T03:36:46.152Z,-8.67
2022-12-08T03:39:13.903Z,-8.74
2022-12-08T03:41:41.425Z,-8.67
2022-12-08T03:44:08.840Z,-8.66
2022-12-08T03:46:36.800Z,-8.77
2022-12-08T03:49:04.755Z,-9.42
2022-12-08T03:51:32.027Z,-8.77
2022-12-08T03:53:59.634Z,-8.76
2022-12-08T03:56:30.825Z,-8.75
2022-12-08T03:58:58.198Z,-8.95
2022-12-08T04:01:26.171Z,-8.77
2022-12-08T04:03:54.199Z,-8.91
2022-12-08T04:06:22.207Z,-8.91
2022-12-08T04:08:50.935Z,-8.75
2022-12-08T04:11:19.370Z,-8.74
2022-12-08T04:13:47.411Z,-8.75
2022-12-08T04:16:20.955Z,-8.90
2022-12-08T04:18:48.775Z,-8.86
2022-12-08T04:21:16.400Z,-8.88
2022-12-08T04:23:44.888Z,-8.88
2022-12-08T04:26:13.183Z,-8.87
2022-12-08T04:28:40.480Z,-8.93
2022-12-08T04:31:08.862Z,-9.18
2022-12-08T04:33:36.597Z,-8.96
2022-12-08T04:36:06.202Z,-8.97
2022-12-08T04:38:34.756Z,-8.94
2022-12-08T04:41:02.563Z,-9.92
2022-12-08T04:43:30.030Z,-9.00
2022-12-08T04:45:57.890Z,-8.91
2022-12-08T04:48:26.011Z,-8.93
2022-12-08T04:50:53.729Z,-9.68
2022-12-08T04:53:21.615Z,-9.40
2022-12-08T04:55:49.890Z,-8.94
2022-12-08T04:58:19.715Z,-8.88
2022-12-08T05:00:48.243Z,-9.39
2022-12-08T05:03:16.826Z,-8.88
2022-12-08T05:05:44.667Z,-8.91
2022-12-08T05:08:12.422Z,-8.86
2022-12-08T05:10:40.594Z,-8.85
2022-12-08T05:13:07.981Z,-9.02
2022-12-08T05:15:36.256Z,-8.98
2022-12-08T05:18:07.398Z,-9.01
2022-12-08T05:20:35.927Z,-9.06
2022-12-08T05:23:03.812Z,-9.08
2022-12-08T05:25:31.259Z,-9.06
2022-12-08T05:28:24.656Z,-9.05
2022-12-08T05:30:47.378Z,-9.02
2022-12-08T05:33:15.132Z,-8.95
2022-12-08T05:35:43.064Z,-9.08
2022-12-08T05:38:11.119Z,-9.03
2022-12-08T05:40:39.762Z,-9.69
2022-12-08T05:43:07.609Z,-9.00
2022-12-08T05:45:35.904Z,-9.67
2022-12-08T05:48:03.662Z,-8.97
2022-12-08T05:50:31.001Z,-9.01
2022-12-08T05:52:58.911Z,-8.93
2022-12-08T05:55:26.285Z,-8.88
2022-12-08T05:57:53.819Z,-8.80
2022-12-08T06:00:22.216Z,-8.74
2022-12-08T06:02:49.951Z,-8.72
2022-12-08T06:05:17.914Z,-8.86
2022-12-08T06:07:45.755Z,-8.79
2022-12-08T06:10:13.973Z,-8.72
2022-12-08T06:12:41.850Z,-8.81
2022-12-08T06:15:10.260Z,-8.79
2022-12-08T06:17:37.605Z,-8.81
2022-12-08T06:20:06.522Z,-8.80
2022-12-08T06:22:34.874Z,-8.70
2022-12-08T06:25:05.904Z,-9.34
2022-12-08T06:27:34.920Z,-8.67
2022-12-08T06:30:03.257Z,-8.76
2022-12-08T06:32:31.386Z,-10.02
2022-12-08T06:34:58.842Z,-8.97
2022-12-08T06:37:26.748Z,-9.53
2022-12-08T06:39:54.280Z,-8.75
2022-12-08T06:42:40.584Z,-8.79
2022-12-08T06:45:08.512Z,-8.87
2022-12-08T06:47:36.713Z,-8.70
2022-12-08T06:50:05.663Z,-8.89
2022-12-08T06:52:34.896Z,-8.69
2022-12-08T06:55:04.172Z,-8.89
2022-12-08T06:57:31.783Z,-8.69
2022-12-08T06:59:59.394Z,-8.62
2022-12-08T07:02:26.967Z,-8.54
2022-12-08T07:04:54.834Z,-8.52
2022-12-08T07:07:22.627Z,-8.49
2022-12-08T07:09:50.246Z,-8.56
2022-12-08T07:12:17.833Z,-8.44
2022-12-08T07:14:45.311Z,-8.64
2022-12-08T07:17:12.658Z,-8.56
2022-12-08T07:19:40.413Z,-8.49
2022-12-08T07:22:07.900Z,-8.66
2022-12-08T07:24:36.191Z,-8.31
2022-12-08T07:27:04.309Z,-8.27
2022-12-08T07:29:31.772Z,-8.13
2022-12-08T07:32:00.364Z,-8.54
2022-12-08T07:34:28.958Z,-8.05
2022-12-08T07:36:56.289Z,-8.02
2022-12-08T07:39:23.851Z,-8.04
2022-12-08T07:41:51.659Z,-7.97
2022-12-08T07:44:19.149Z,-8.23
2022-12-08T07:46:46.668Z,-7.86
2022-12-08T07:49:14.465Z,-7.79
2022-12-08T07:51:41.960Z,-7.72
2022-12-08T07:54:12.941Z,-7.59
2022-12-08T07:56:40.951Z,-7.54
2022-12-08T07:59:08.335Z,-7.52
2022-12-08T08:01:36.659Z,-7.47
2022-12-08T08:04:07.033Z,-7.61
2022-12-08T08:06:36.435Z,-7.61
2022-12-08T08:09:04.705Z,-7.62
2022-12-08T08:11:32.511Z,-7.48
2022-12-08T08:13:59.997Z,-7.38
2022-12-08T08:16:29.192Z,-8.17
2022-12-08T08:19:00.076Z,-7.52
2022-12-08T08:24:15.268Z,-7.32
2022-12-08T08:26:42.740Z,-7.32
2022-12-08T08:29:10.183Z,-7.17
2022-12-08T08:31:38.105Z,-7.24
2022-12-08T08:34:06.662Z,-8.60
2022-12-08T08:36:34.958Z,-7.33
2022-12-08T08:39:03.559Z,-7.24
2022-12-08T08:41:31.515Z,-7.17
2022-12-08T08:43:58.811Z,-7.17
2022-12-08T08:46:26.925Z,-7.00
2022-12-08T08:48:54.565Z,-6.79
2022-12-08T08:51:21.971Z,-6.80
2022-12-08T08:53:49.660Z,-7.84
2022-12-08T08:56:19.619Z,-6.87
2022-12-08T08:58:51.912Z,-6.87
2022-12-08T09:01:22.020Z,-6.69
2022-12-08T09:03:50.106Z,-6.73
2022-12-08T09:06:18.400Z,-6.91
2022-12-08T09:08:46.694Z,-7.14
2022-12-08T09:11:14.201Z,-7.23
2022-12-08T09:13:42.347Z,-7.98
2022-12-08T09:16:11.680Z,-7.30
2022-12-08T09:18:38.942Z,-7.22
2022-12-08T09:21:13.481Z,-7.15
2022-12-08T09:23:41.347Z,-8.71
2022-12-08T09:26:08.989Z,-7.18
2022-12-08T09:28:37.158Z,-7.07
2022-12-08T09:31:05.011Z,-7.87
2022-12-08T09:33:33.958Z,-7.84
2022-12-08T09:36:04.124Z,-7.03
2022-12-08T09:38:32.640Z,-7.63
2022-12-08T09:41:03.750Z,-7.03
2022-12-08T09:43:53.195Z,-7.88
2022-12-08T09:46:21.659Z,-7.05
2022-12-08T09:48:57.646Z,-7.05
2022-12-08T09:51:27.846Z,-6.99
2022-12-08T09:54:00.461Z,-7.09
2022-12-08T09:56:36.283Z,-7.01
2022-12-08T09:59:17.462Z,-7.06
2022-12-08T10:01:45.044Z,-7.07
2022-12-08T10:04:24.754Z,-7.09
2022-12-08T10:07:07.611Z,-7.04
2022-12-08T10:09:51.677Z,-6.98
2022-12-08T10:12:26.615Z,-6.97
2022-12-08T10:15:16.091Z,-6.93
2022-12-08T10:17:48.736Z,-6.90
2022-12-08T10:20:29.227Z,-6.93
2022-12-08T10:23:07.857Z,-6.97
2022-12-08T10:25:56.060Z,-7.66
2022-12-08T10:28:23.442Z,-7.03
2022-12-08T10:30:50.965Z,-7.85
2022-12-08T10:33:21.383Z,-7.17
2022-12-08T10:35:58.579Z,-7.21
2022-12-08T10:38:34.888Z,-7.22
2022-12-08T10:41:12.145Z,-7.15
2022-12-08T10:43:56.734Z,-7.18
2022-12-08T10:46:26.071Z,-7.24
2022-12-08T10:49:25.571Z,-7.24
2022-12-08T10:51:53.051Z,-7.46
2022-12-08T10:54:37.872Z,-7.18
2022-12-08T10:57:05.378Z,-7.10
2022-12-08T10:59:34.442Z,-7.10
2022-12-08T11:02:02.546Z,-7.01
2022-12-08T11:04:38.509Z,-7.13
2022-12-08T11:07:09.088Z,-7.05
2022-12-08T11:09:38.507Z,-7.02
2022-12-08T11:12:09.562Z,-7.00
2022-12-08T11:14:43.369Z,-6.93
2022-12-08T11:17:33.117Z,-6.96
2022-12-08T11:20:02.498Z,-6.82
2022-12-08T11:22:38.750Z,-6.70
2022-12-08T11:25:18.339Z,-6.53
2022-12-08T11:27:51.333Z,-6.53
2022-12-08T11:30:23.988Z,-6.56
2022-12-08T11:32:56.442Z,-6.58
2022-12-08T11:35:45.719Z,-6.58
2022-12-08T11:38:22.519Z,-6.56
2022-12-08T11:41:16.663Z,-6.62
2022-12-08T11:44:10.005Z,-6.72
2022-12-08T11:46:44.047Z,-6.75
2022-12-08T11:49:13.798Z,-6.62
2022-12-08T11:51:57.379Z,-6.61
2022-12-08T11:54:40.329Z,-6.69
2022-12-08T11:57:21.098Z,-6.61
2022-12-08T11:59:51.310Z,-6.58
2022-12-08T12:02:19.011Z,-6.52
2022-12-08T12:04:54.313Z,-6.62
2022-12-08T12:07:26.429Z,-7.19
2022-12-08T12:10:18.481Z,-6.61
2022-12-08T12:13:07.603Z,-6.55
2022-12-08T12:15:41.343Z,-6.62
2022-12-08T12:18:56.100Z,-6.75
2022-12-08T12:21:39.471Z,-6.81
2022-12-08T12:24:23.810Z,-6.84
2022-12-08T12:26:59.344Z,-6.91
2022-12-08T12:29:31.821Z,-6.91
2022-12-08T12:32:05.093Z,-6.97
2022-12-08T12:34:45.224Z,-6.95
2022-12-08T12:37:24.374Z,-7.54
2022-12-08T12:39:58.221Z,-6.99
2022-12-08T12:42:43.823Z,-7.01
2022-12-08T12:45:17.495Z,-7.02
2022-12-08T12:47:57.176Z,-7.03
2022-12-08T12:50:33.882Z,-7.02
2022-12-08T12:53:18.340Z,-7.03
2022-12-08T12:55:45.848Z,-6.91
2022-12-08T12:58:28.740Z,-6.91
2022-12-08T13:01:14.154Z,-6.92
2022-12-08T13:03:52.025Z,-6.95
2022-12-08T13:06:32.565Z,-6.93
2022-12-08T13:09:01.043Z,-6.92
2022-12-08T13:11:28.589Z,-7.29
2022-12-08T13:14:05.664Z,-6.84
2022-12-08T13:16:39.722Z,-7.01
2022-12-08T13:19:16.484Z,-7.05
2022-12-08T13:21:44.020Z,-7.00
2022-12-08T13:24:14.660Z,-6.91
2022-12-08T13:27:04.392Z,-7.02
2022-12-08T13:29:33.871Z,-6.97
2022-12-08T13:32:25.584Z,-7.93
2022-12-08T13:34:58.120Z,-6.85
2022-12-08T13:37:54.510Z,-6.92
2022-12-08T13:40:27.370Z,-6.98
2022-12-08T13:43:25.604Z,-6.97
2022-12-08T13:50:54.819Z,-6.93
2022-12-08T13:55:27.063Z,-6.91
2022-12-08T13:57:28.898Z,-6.76
2022-12-08T14:00:01.125Z,-6.82
2022-12-08T14:02:47.138Z,-7.91
2022-12-08T14:05:20.462Z,-6.97
2022-12-08T14:07:54.413Z,-7.76
2022-12-08T14:10:32.392Z,-6.96
2022-12-08T14:13:04.474Z,-6.70
2022-12-08T14:15:38.601Z,-6.75
2022-12-08T14:18:21.409Z,-6.70
2022-12-08T14:21:22.389Z,-6.66
2022-12-08T14:24:10.200Z,-7.83
2022-12-08T14:26:37.769Z,-6.77
2022-12-08T14:29:09.884Z,-6.69
2022-12-08T14:31:37.302Z,-6.58
2022-12-08T14:34:04.921Z,-6.55
2022-12-08T14:36:34.066Z,-6.52
2022-12-08T14:39:01.690Z,-6.43
2022-12-08T14:41:33.582Z,-6.65
2022-12-08T14:44:02.013Z,-6.31
2022-12-08T14:46:29.745Z,-6.82
2022-12-08T14:48:58.558Z,-6.30
2022-12-08T14:51:33.539Z,-6.25
2022-12-08T14:54:13.906Z,-6.75
2022-12-08T14:56:55.880Z,-7.13
2022-12-08T14:59:27.745Z,-6.93
2022-12-08T15:02:11.525Z,-6.25
2022-12-08T15:04:41.384Z,-6.20
2022-12-08T15:07:18.970Z,-6.21
2022-12-08T15:09:50.341Z,-6.10
2022-12-08T15:12:27.041Z,-6.01
2022-12-08T15:15:10.217Z,-6.02
2022-12-08T15:17:40.669Z,-6.01
2022-12-08T15:20:35.343Z,-6.05
2022-12-08T15:23:04.239Z,-6.01
2022-12-08T15:25:31.974Z,-5.94
2022-12-08T15:27:59.906Z,-5.84
2022-12-08T15:30:27.601Z,-5.87
2022-12-08T15:32:56.395Z,-5.83
2022-12-08T15:35:24.182Z,-5.90
2022-12-08T15:37:52.130Z,-5.68
2022-12-08T15:40:23.063Z,-5.72
2022-12-08T15:42:50.719Z,-5.71
2022-12-08T15:45:18.411Z,-5.87
2022-12-08T15:47:46.639Z,-5.64
2022-12-08T15:50:19.448Z,-5.63
2022-12-08T15:52:47.126Z,-5.81
2022-12-08T15:55:16.585Z,-5.72
2022-12-08T16:00:54.653Z,-5.74
2022-12-08T16:07:04.857Z,-5.76
2022-12-08T16:09:19.927Z,-5.75
2022-12-08T16:12:08.145Z,-6.12
2022-12-08T16:17:26.180Z,-5.69
2022-12-08T16:19:54.170Z,-5.66
2022-12-08T16:22:52.797Z,-5.83
2022-12-08T16:25:20.299Z,-5.61
2022-12-08T16:28:36.868Z,-5.64
2022-12-08T16:30:42.176Z,-5.59
2022-12-08T16:33:12.181Z,-6.13
2022-12-08T16:35:40.815Z,-5.52
2022-12-08T16:38:08.597Z,-5.48
2022-12-08T16:40:56.386Z,-5.94
2022-12-08T16:43:24.402Z,-5.37
2022-12-08T16:45:51.923Z,-5.36
2022-12-08T16:48:20.741Z,-5.95
2022-12-08T16:50:48.715Z,-5.31
2022-12-08T16:53:16.372Z,-5.30
2022-12-08T16:55:48.825Z,-5.34
2022-12-08T16:58:18.986Z,-5.32
2022-12-08T17:00:46.654Z,-5.38
2022-12-08T17:03:15.806Z,-5.41
2022-12-08T17:05:44.182Z,-5.38
2022-12-08T17:08:13.420Z,-5.35
2022-12-08T17:10:41.660Z,-5.97
2022-12-08T17:13:09.602Z,-5.53
2022-12-08T17:15:37.095Z,-5.87
2022-12-08T17:18:04.584Z,-5.34
2022-12-08T17:20:34.929Z,-5.28
2022-12-08T17:23:02.636Z,-5.34
2022-12-08T17:25:30.373Z,-5.36
2022-12-08T17:27:58.427Z,-5.31
2022-12-08T17:30:25.774Z,-5.66
2022-12-08T17:32:53.498Z,-5.75
2022-12-08T17:35:21.919Z,-5.26
2022-12-08T17:37:49.880Z,-5.28
2022-12-08T17:40:17.499Z,-5.33
2022-12-08T17:42:45.335Z,-5.22
2022-12-08T17:45:15.332Z,-5.20
2022-12-08T17:47:42.726Z,-5.14
2022-12-08T17:50:11.069Z,-5.20
2022-12-08T17:52:38.444Z,-5.11
2022-12-08T17:55:06.388Z,-5.10
2022-12-08T17:57:34.237Z,-5.01
2022-12-08T18:00:02.881Z,-5.02
2022-12-08T18:02:40.030Z,-5.04
2022-12-08T18:05:07.737Z,-5.07
2022-12-08T18:07:35.767Z,-5.09
2022-12-08T18:10:04.592Z,-5.14
2022-12-08T18:12:32.396Z,-5.20
2022-12-08T18:15:00.039Z,-5.22
2022-12-08T18:17:27.896Z,-5.27
2022-12-08T18:19:55.299Z,-5.30
2022-12-08T18:22:22.664Z,-5.33
2022-12-08T18:24:50.965Z,-5.26
2022-12-08T18:27:18.755Z,-5.30
2022-12-08T18:29:46.303Z,-5.30
2022-12-08T18:32:14.064Z,-5.37
2022-12-08T18:34:41.828Z,-5.39
2022-12-08T18:37:09.270Z,-5.36
2022-12-08T18:39:38.222Z,-5.34
2022-12-08T18:42:23.048Z,-5.35
2022-12-08T18:44:52.240Z,-5.29
2022-12-08T18:47:20.164Z,-5.92
2022-12-08T18:49:47.793Z,-5.23
2022-12-08T18:52:17.907Z,-5.40
2022-12-08T18:55:05.790Z,-5.66
2022-12-08T18:57:35.571Z,-5.18
2022-12-08T19:00:06.177Z,-5.24
2022-12-08T19:02:34.369Z,-5.12
2022-12-08T19:05:02.444Z,-5.09
2022-12-08T19:07:31.022Z,-5.05
2022-12-08T19:09:59.466Z,-5.11
2022-12-08T19:12:27.295Z,-5.05
2022-12-08T19:14:54.805Z,-5.10
2022-12-08T19:17:22.509Z,-5.05
2022-12-08T19:19:50.349Z,-5.53
2022-12-08T19:22:17.906Z,-5.15
2022-12-08T19:24:45.305Z,-4.97
2022-12-08T19:27:13.246Z,-5.03
2022-12-08T19:29:40.781Z,-5.10
2022-12-08T19:32:08.087Z,-4.97
2022-12-08T19:34:36.202Z,-5.01
2022-12-08T19:37:04.020Z,-6.11
2022-12-08T19:39:50.267Z,-4.96
2022-12-08T19:42:38.552Z,-4.98
2022-12-08T19:45:08.672Z,-4.93
2022-12-08T19:47:36.420Z,-4.90
2022-12-08T19:50:23.967Z,-5.86
2022-12-08T19:52:52.567Z,-5.07
2022-12-08T19:55:20.670Z,-4.92
2022-12-08T19:57:48.272Z,-4.86
2022-12-08T20:00:16.303Z,-4.95
2022-12-08T20:02:43.964Z,-4.99
2022-12-08T20:05:13.169Z,-4.87
2022-12-08T20:07:41.523Z,-4.78
2022-12-08T20:10:17.372Z,-4.76
2022-12-08T20:12:45.077Z,-4.78
2022-12-08T20:15:12.724Z,-4.79
2022-12-08T20:17:40.468Z,-4.79
2022-12-08T20:20:10.148Z,-4.81
2022-12-08T20:22:38.017Z,-5.31
2022-12-08T20:25:06.305Z,-4.80
2022-12-08T20:27:34.014Z,-4.66
2022-12-08T20:30:01.689Z,-4.63
2022-12-08T20:32:31.610Z,-4.55
2022-12-08T20:34:59.493Z,-4.51
2022-12-08T20:37:26.845Z,-4.97
2022-12-08T20:39:54.516Z,-4.49
2022-12-08T20:42:24.206Z,-4.48
2022-12-08T20:44:51.530Z,-4.51
2022-12-08T20:47:19.204Z,-5.12
2022-12-08T20:49:47.774Z,-4.53
2022-12-08T20:52:17.098Z,-4.51
2022-12-08T20:54:45.565Z,-4.56
2022-12-08T20:57:13.358Z,-4.60
2022-12-08T20:59:40.932Z,-5.10
2022-12-08T21:02:10.835Z,-4.69
2022-12-08T21:04:38.681Z,-4.71
2022-12-08T21:07:08.944Z,-4.73
2022-12-08T21:09:37.301Z,-4.65
2022-12-08T21:12:05.305Z,-4.70
2022-12-08T21:14:35.117Z,-4.68
2022-12-08T21:17:03.274Z,-5.27
2022-12-08T21:19:30.960Z,-4.75
2022-12-08T21:21:58.306Z,-5.36
2022-12-08T21:24:31.966Z,-5.75
2022-12-08T21:27:01.627Z,-4.62
2022-12-08T21:29:29.873Z,-4.61
2022-12-08T21:31:58.829Z,-4.60
2022-12-08T21:34:52.107Z,-4.56
2022-12-08T21:37:22.526Z,-4.49
2022-12-08T21:39:50.018Z,-4.48
2022-12-08T21:42:36.481Z,-4.47
2022-12-08T21:45:04.857Z,-4.46
2022-12-08T21:47:32.665Z,-4.62
2022-12-08T21:50:00.633Z,-4.67
2022-12-08T21:52:28.469Z,-4.62
2022-12-08T21:54:56.180Z,-4.62
2022-12-08T21:57:24.894Z,-5.41
2022-12-08T21:59:52.439Z,-4.49
2022-12-08T22:02:22.611Z,-5.18
2022-12-08T22:04:53.111Z,-4.44
2022-12-08T22:07:21.712Z,-4.45
2022-12-08T22:09:49.509Z,-4.36
2022-12-08T22:12:17.581Z,-4.34
2022-12-08T22:14:45.398Z,-4.23
2022-12-08T22:17:12.922Z,-4.22
2022-12-08T22:19:40.808Z,-4.76
2022-12-08T22:22:08.756Z,-4.20
2022-12-08T22:24:36.341Z,-4.21
2022-12-08T22:27:04.466Z,-4.09
2022-12-08T22:29:31.993Z,-4.10
2022-12-08T22:31:59.576Z,-4.17
2022-12-08T22:34:47.315Z,-4.80
2022-12-08T22:37:15.111Z,-4.18
2022-12-08T22:39:42.713Z,-4.23
2022-12-08T22:42:10.433Z,-4.27
2022-12-08T22:44:38.111Z,-4.15
2022-12-08T22:47:05.640Z,-4.09
2022-12-08T22:49:33.776Z,-4.06
2022-12-08T22:52:01.580Z,-4.04
2022-12-08T22:54:28.837Z,-4.45
2022-12-08T22:56:56.886Z,-4.07
2022-12-08T22:59:24.947Z,-4.10
2022-12-08T23:01:54.032Z,-4.12
2022-12-08T23:04:21.905Z,-4.08
2022-12-08T23:06:49.320Z,-4.06
2022-12-08T23:09:16.720Z,-4.09
2022-12-08T23:11:44.520Z,-4.11
2022-12-08T23:14:12.047Z,-4.09
2022-12-08T23:16:39.959Z,-5.05
2022-12-08T23:19:08.226Z,-4.13
2022-12-08T23:21:35.731Z,-4.14
2022-12-08T23:24:03.256Z,-4.64
2022-12-08T23:26:33.261Z,-4.70
2022-12-08T23:29:01.838Z,-4.19
2022-12-08T23:31:29.277Z,-4.16
2022-12-08T23:33:56.967Z,-4.18
2022-12-08T23:36:26.614Z,-4.14
2022-12-08T23:38:55.368Z,-4.11
2022-12-08T23:41:23.462Z,-4.06
2022-12-08T23:43:51.918Z,-4.10
2022-12-08T23:46:21.824Z,-4.11
2022-12-08T23:48:50.511Z,-4.15
2022-12-08T23:51:18.048Z,-4.09
2022-12-08T23:53:46.399Z,-4.04
2022-12-08T23:56:16.824Z,-4.04
2022-12-08T23:58:45.080Z,-4.04
